Tuesday, January 23, 2018, 6:58 PM EST
Back to Local

KOXB, Ocean City Municipal Airport

Location: Berlin, MD, United States Lat: 38.317
Local Time: 6:58 PM EST (23:58 GMT) Lon: -75.117
Time Zone: US/Eastern Elev: 13 ft

Show me the last for .
Show Decoded

2018-01-23 17:53 METAR KOXB 232253Z AUTO 34012KT 10SM FEW026 BKN065 13/11 A2969 RMK AO2 SLP053
                 T01330111 =
2018-01-23 16:53 METAR KOXB 232153Z AUTO 23010KT 10SM SCT060 BKN085 11/11 A2963 RMK AO2 SLP033
                 T01110111 =
2018-01-23 16:37 METAR KOXB 232137Z AUTO 24008KT 10SM SCT002 BKN065 BKN085 12/12 A2962 RMK AO2
                 T01170117 =
2018-01-23 16:30 METAR KOXB 232130Z AUTO 22007KT 10SM BKN002 BKN065 BKN085 11/11 A2961 RMK AO2
                 T01060106 =
2018-01-23 16:23 METAR KOXB 232123Z AUTO 21006KT 2SM BR BKN002 11/11 A2961 RMK AO2 T01060106 =
2018-01-23 16:18 METAR KOXB 232118Z AUTO 20008KT 3/4SM BR VV002 10/10 A2960 RMK AO2 T01000100 =
2018-01-23 16:03 METAR KOXB 232103Z AUTO 20008KT 1 1/4SM BR OVC002 10/10 A2960 RMK AO2 T01000100
                 =
2018-01-23 15:53 METAR KOXB 232053Z AUTO 21007KT 3/4SM BR OVC002 11/11 A2960 RMK AO2 SLP022
                 T01060106 56006 =
2018-01-23 15:26 METAR KOXB 232026Z AUTO 21013G22KT 1/4SM FG OVC003 11/11 A2959 RMK AO2 T01060106
                 =
2018-01-23 15:18 METAR KOXB 232018Z AUTO 22016G21KT 1 3/4SM BR OVC003 11/11 A2959 RMK AO2
                 T01110111 =
2018-01-23 14:57 METAR KOXB 231957Z AUTO 21008G16KT 3SM BR OVC002 11/11 A2959 RMK AO2 T01110111 =
2018-01-23 14:52 METAR KOXB 231952Z AUTO 21009KT 1SM BR OVC002 11/11 A2959 RMK AO2 SLP020
                 T01060106 =
2018-01-23 14:51 METAR KOXB 231951Z AUTO 21009KT 1SM BR OVC002 10/10 A2959 RMK AO2 =
2018-01-23 14:34 METAR KOXB 231934Z AUTO 20010G19KT 160V230 1/4SM FG VV002 12/12 A2959 RMK AO2
                 T01170117 =
2018-01-23 14:25 METAR KOXB 231925Z AUTO 21011KT 1/4SM FG OVC004 11/11 A2960 RMK AO2 T01060106 =
2018-01-23 14:20 METAR KOXB 231920Z AUTO 21010KT 1 1/2SM BR OVC004 11/11 A2960 RMK AO2 T01060106
                 =
2018-01-23 13:53 METAR KOXB 231853Z AUTO 21008G18KT 10SM BKN004 OVC013 12/12 A2961 RMK AO2 SLP028
                 T01220122 =
2018-01-23 13:51 METAR KOXB 231851Z AUTO 21009G18KT 10SM BKN004 OVC013 12/12 A2962 RMK AO2 =
2018-01-23 13:17 METAR KOXB 231817Z AUTO 21010KT 10SM BKN006 BKN014 OVC090 14/14 A2963 RMK AO2
                 CIG 005V010 T01440144 =
2018-01-23 13:05 METAR KOXB 231805Z AUTO 21009G14KT 10SM SCT006 OVC012 13/13 A2963 RMK AO2
                 T01280128 =
2018-01-23 12:53 METAR KOXB 231753Z AUTO 21008KT 10SM BKN012 OVC075 13/13 A2964 RMK AO2 RAE18
                 SLP037 P0004 60188 T01280128 10139 20089 56030 =
2018-01-23 12:48 METAR KOXB 231748Z AUTO 21008KT 10SM BKN012 OVC075 12/12 A2964 RMK AO2 RAE18
                 P0004 =
2018-01-23 12:11 METAR KOXB 231711Z AUTO 21012G16KT 9SM -RA SCT006 BKN065 OVC075 13/13 A2965 RMK
                 AO2 LTG DSNT NE P0004 T01280128 =
2018-01-23 12:07 METAR KOXB 231707Z AUTO 21010G16KT 5SM -RA BR BKN008 BKN016 OVC065 13/13 A2965
                 RMK AO2 LTG DSNT NE PRESFR P0004 T01330133 =
2018-01-23 12:04 METAR KOXB 231704Z AUTO 20008G15KT 2SM -RA BR SCT006 BKN010 OVC060 14/14 A2966
                 RMK AO2 LTG DSNT NE PRESFR P0004 T01390139 =
2018-01-23 11:59 METAR KOXB 231659Z AUTO 21010G17KT 1 1/4SM +RA BR BKN008 BKN014 OVC019 14/14
                 A2967 RMK AO2 LTG DSNT NE P0004 T01390139 =
2018-01-23 11:57 METAR KOXB 231657Z AUTO 22010G17KT 1SM +RA BR BKN010 OVC014 14/14 A2968 RMK AO2
                 LTG DSNT NE P0004 T01390139 =
2018-01-23 11:53 METAR KOXB 231653Z AUTO 23008G15KT 3/4SM +RA BR BKN010 OVC016 14/14 A2968 RMK
                 AO2 PK WND 25033/1555 LTG DSNT NE TSE1556 SLP049 P0076 T01390139 =
2018-01-23 11:43 METAR KOXB 231643Z AUTO 26004KT 3/4SM +RA BR SCT008 OVC013 14/14 A2968 RMK AO2
                 PK WND 25033/1555 TSE1556 PRESFR P0062 T01390139 =
2018-01-23 11:36 METAR KOXB 231636Z AUTO 28008G16KT 1/2SM +RA FG SCT010 BKN015 OVC021 14/14 A2969
                 RMK AO2 PK WND 25033/1555 LTG DSNT SW TSE1556 P0054 T01390139 =
2018-01-23 11:29 METAR KOXB 231629Z AUTO 23008KT 1SM +RA BR BKN013 OVC021 14/14 A2970 RMK AO2 PK
                 WND 25033/1555 LTG DSNT SW TSE1556 P0033 T01390139 =
2018-01-23 11:20 METAR KOXB 231620Z AUTO 24009KT 2SM +RA BR BKN015 OVC021 14/14 A2970 RMK AO2 PK
                 WND 25033/1555 VIS 1 3/4V3 TSE1556 P0018 T01390139 =
2018-01-23 10:56 METAR KOXB 231556Z AUTO 24021G33KT 1 3/4SM VCTS +RA BR SCT005 SCT009 OVC019
                 13/13 A2973 RMK AO2 PK WND 25033/1555 VIS 1 1/4V2 1/2 LTG DSNT NE AND SW AND W
                 TSE56 P0001 T01280128 =
2018-01-23 10:53 METAR KOXB 231553Z AUTO 23016G24KT 1 3/4SM +TSRA BR BKN005 OVC019 13/13 A2973
                 RMK AO2 LTG DSNT NE AND SW AND W TSB17 SLP067 P0036 T01280128 =
2018-01-23 10:50 METAR KOXB 231550Z AUTO 22018G24KT 1 3/4SM +TSRA BR SCT005 BKN009 OVC019 13/13
                 A2972 RMK AO2 LTG DSNT NE AND SW AND W TSB17 P0034 =
2018-01-23 10:34 METAR KOXB 231534Z AUTO 21011G18KT 6SM -TSRA BR BKN007 BKN013 OVC017 12/12 A2971
                 RMK AO2 LTG DSNT NE TSB17 P0024 T01170117 =
2018-01-23 10:26 METAR KOXB 231526Z AUTO 21011G18KT 4SM -TSRA BR FEW003 BKN013 OVC021 12/12 A2973
                 RMK AO2 TSB17 P0023 T01170117 =
2018-01-23 10:23 METAR KOXB 231523Z AUTO 21011G20KT 1 3/4SM -TSRA BR FEW003 BKN013 OVC021 11/11
                 A2973 RMK AO2 LTG DSNT SW TSB17 P0023 T01110111 =
2018-01-23 10:10 METAR KOXB 231510Z AUTO 20010G15KT 1SM +RA BR SCT003 BKN012 OVC020 10/10 A2973
                 RMK AO2 LTG DSNT E AND SW P0014 T01000100 =
2018-01-23 10:01 METAR KOXB 231501Z AUTO 21009KT 1 1/2SM VCTS RA BR FEW003 BKN007 OVC025 09/09
                 A2974 RMK AO2 LTG DSNT E P0003 T00940094 =
2018-01-23 09:53 METAR KOXB 231453Z AUTO 21010G17KT 1 1/2SM RA BR BKN005 BKN018 OVC031 11/11
                 A2974 RMK AO2 SLP070 P0058 60072 T01060106 58032 =
2018-01-23 09:47 METAR KOXB 231447Z AUTO 21010G21KT 1SM +RA BR SCT005 BKN018 OVC026 12/12 A2975
                 RMK AO2 PRESFR P0056 =
2018-01-23 09:41 METAR KOXB 231441Z AUTO 21014G21KT 1SM +RA BR BKN004 BKN019 OVC024 12/12 A2976
                 RMK AO2 P0051 T01170117 =
2018-01-23 09:24 METAR KOXB 231424Z AUTO 21010G19KT 3/4SM +RA BR BKN004 BKN018 OVC055 10/10 A2977
                 RMK AO2 P0025 T01000100 =
2018-01-23 09:21 METAR KOXB 231421Z AUTO 21011G23KT 1 1/4SM +RA BR BKN006 BKN027 OVC055 11/11
                 A2977 RMK AO2 P0019 T01060106 =
2018-01-23 08:53 METAR KOXB 231353Z AUTO 21008G16KT 1 3/4SM +RA BR FEW006 BKN046 OVC060 09/09
                 A2978 RMK AO2 SLP085 P0013 T00940094 =
2018-01-23 08:49 METAR KOXB 231349Z AUTO 21010G16KT 2SM RA BR SCT006 BKN044 OVC060 10/10 A2979
                 RMK AO2 P0011 =
2018-01-23 08:40 METAR KOXB 231340Z AUTO 22012G21KT 2 1/2SM RA BR BKN004 BKN032 OVC050 10/10
                 A2980 RMK AO2 P0007 T01000100 =
2018-01-23 08:33 METAR KOXB 231333Z AUTO 22011G20KT 2 1/2SM +RA BR SCT002 BKN006 OVC031 10/10
                 A2980 RMK AO2 P0004 T01000100 =
2018-01-23 08:25 METAR KOXB 231325Z AUTO 23014G22KT 6SM -RA BR BKN004 OVC027 11/11 A2981 RMK AO2
                 P0001 T01110111 =
2018-01-23 08:17 METAR KOXB 231317Z AUTO 23011KT 2SM -RA BR OVC002 10/10 A2980 RMK AO2 P0000
                 T01000100 =
2018-01-23 08:03 METAR KOXB 231303Z AUTO 21007KT 1/2SM -RA FG VV002 09/09 A2980 RMK AO2 P0000
                 T00890089 =
2018-01-23 07:53 METAR KOXB 231253Z AUTO 21008G15KT 1SM -RA BR VV002 09/09 A2981 RMK AO2 RAB10
                 SLP094 P0001 T00890089 =
2018-01-23 07:34 METAR KOXB 231234Z AUTO VRB06G14KT 3/4SM -RA BR VV002 09/09 A2981 RMK AO2 RAB10
                 PRESFR P0001 T00940094 =
2018-01-23 07:21 METAR KOXB 231221Z AUTO 21009G15KT 1SM -RA BR VV002 09/09 A2983 RMK AO2 RAB10
                 P0000 T00940094 =
2018-01-23 06:53 METAR KOXB 231153Z AUTO 21010KT 1/2SM FG VV002 09/09 A2983 RMK AO2 RAB35E45
                 SLP102 P0000 60000 T00890089 10106 20067 56015 =
2018-01-23 06:49 METAR KOXB 231149Z AUTO 21009KT 3/4SM BR VV002 09/09 A2983 RMK AO2 RAB35E45
                 P0000 =
2018-01-23 06:06 METAR KOXB 231106Z AUTO 21007KT 1 3/4SM BR OVC002 09/09 A2986 RMK AO2 T00940094
                 =
2018-01-23 05:53 METAR KOXB 231053Z AUTO 21010KT 4SM BR OVC002 10/10 A2987 RMK AO2 SLP114
                 T01000100 =
2018-01-23 05:40 METAR KOXB 231040Z AUTO 21010KT 3SM BR OVC002 10/10 A2987 RMK AO2 T01000100 =
2018-01-23 05:32 METAR KOXB 231032Z AUTO 21009G19KT 2 1/2SM BR OVC002 10/10 A2987 RMK AO2
                 T01000100 =
2018-01-23 04:53 METAR KOXB 230953Z AUTO VRB05KT 8SM OVC003 08/08 A2988 RMK AO2 SLP117 T00830083
                 =
2018-01-23 04:26 METAR KOXB 230926Z AUTO 21007KT 8SM BKN003 07/07 A2990 RMK AO2 T00720072 =
2018-01-23 04:15 METAR KOXB 230915Z AUTO 20006KT 10SM SCT004 08/08 A2989 RMK AO2 PRESFR T00780078
                 =
2018-01-23 03:53 METAR KOXB 230853Z AUTO VRB06KT 9SM FEW070 08/07 A2991 RMK AO2 SLP127 T00780072
                 58035 =
2018-01-23 02:53 METAR KOXB 230753Z AUTO VRB03KT 10SM FEW035 SCT046 BKN080 07/07 A2995 RMK AO2
                 SLP140 T00720072 =
2018-01-23 01:53 METAR KOXB 230653Z AUTO 18004KT 10SM SCT031 BKN039 BKN048 07/07 A2997 RMK AO2
                 SLP149 T00720067 =
2018-01-23 00:53 METAR KOXB 230553Z AUTO VRB05KT 10SM CLR 07/06 A3001 RMK AO2 SLP162 T00720056
                 10089 20067 58018 =
2018-01-22 23:53 METAR KOXB 230453Z AUTO 19003KT 10SM SCT070 08/06 A3003 RMK AO2 PRESFR SLP169
                 T00780056 401330056 =
2018-01-22 22:53 METAR KOXB 230353Z AUTO 21005KT 10SM CLR 08/06 A3007 RMK AO2 SLP181 T00830061 =
2018-01-22 21:53 METAR KOXB 230253Z AUTO 21006KT 10SM CLR 09/06 A3006 RMK AO2 SLP180 T00890056
                 58014 =
2018-01-22 20:53 METAR KOXB 230153Z AUTO 21005KT 10SM CLR 07/05 A3008 RMK AO2 SLP184 T00720050 =
2018-01-22 19:53 METAR KOXB 230053Z AUTO VRB04KT 10SM CLR 07/04 A3010 RMK AO2 SLP191 T00720039 =

Support USWX by starting your Amazon purchase here.